Latest Coastal Weather Observations for Point Perpendicular

IDN60701

Issued at 9:12 pm EDT Tuesday 18 January 2022 (issued every 10 minutes, with the page automatically refreshed every 10 minutes)

About coastal observations | Map of coastal stations | Coastal observations for NSW | Marine services | Other Formats
Station Details ID: 068151 Name: POINT PERPENDICULAR AWS Lat: -35.09 Lon: 150.80 Height: 85.0 m
Data from the previous 72 hours. | See also: Recent months at Point Perpendicular
Date/Time
EDT
Wind Sea
Height
m
Swell Vis
km
Cloud Weather Temp
°C
Press
MSL
hPa
Rain since
9am
mm
Dir  Spd
kts
Gust
kts
Height
m
Period
s
Dir
18/09:00pm S 10 15 - - - - - - - 19.2 1015.5 3.2
18/08:30pm S 10 15 - - - - - - - 19.0 1015.4 3.2
18/08:00pm S 9 13 - - - - - - - 18.6 1014.9 3.2
18/07:30pm SSW 9 15 - - - - - - - 18.7 1014.3 3.0
18/07:00pm S 9 13 - - - - - - - 18.6 1013.6 3.0
18/06:30pm SSW 10 16 - - - - - - - 18.9 1014.0 3.0
18/06:00pm S 9 13 - - - - - - Recent precip. 19.0 1013.5 3.0
18/05:30pm S 10 14 - - - - - - - 18.7 1013.5 2.8
18/05:00pm S 10 15 - - - - - - - 18.8 1013.8 2.2
18/04:30pm S 9 16 - - - - - - - 18.6 1013.6 2.0
18/04:00pm SSW 11 15 - - - - - - - 19.2 1013.5 1.4
18/03:30pm SSW 9 14 - - - - - - - 19.0 1013.6 1.4
18/03:00pm SSW 11 14 - - - - - - Rain 18.8 1013.6 1.4
18/02:30pm S 10 15 - - - - - - - 19.0 1013.8 1.2
18/02:00pm S 11 17 - - - - - - - 19.4 1013.7 1.2
18/01:30pm SSW 10 16 - - - - - - - 18.4 1014.1 1.2
18/01:00pm SW 10 17 - - - - - - - 18.0 1014.3 1.0
18/12:30pm SW 12 17 - - - - - - - 18.0 1014.5 1.0
18/12:00pm SW 11 16 - - - - - - Recent precip. 18.3 1014.3 0.8
18/11:30am SW 10 16 - - - - - - - 18.5 1014.2 0.6
18/11:00am SW 9 14 - - - - - - - 19.1 1014.3 0.6
18/10:30am SSW 8 12 - - - - - - - 18.8 1014.3 0.4
18/10:00am SW 8 14 - - - - - - - 19.3 1014.1 0.4
18/09:30am SW 10 14 - - - - - - - 19.2 1013.9 0.0
18/09:00am SW 8 13 - - - - - - Rain 19.4 1013.6 0.2
18/08:30am SW 9 14 - - - - - - - 19.5 1013.4 0.0
18/08:00am SW 11 16 - - - - - - - 19.5 1013.1 0.0
18/07:30am SSW 11 16 - - - - - - - 19.7 1012.6 0.0
18/07:00am SSW 10 15 - - - - - - - 19.7 1012.4 0.0
18/06:30am SSW 11 16 - - - - - - - 19.6 1012.1 0.0
18/06:00am SSW 12 17 - - - - - - - 19.8 1011.8 0.0
18/05:30am SSW 10 15 - - - - - - - 20.2 1011.7 0.0
18/05:00am SSW 11 15 - - - - - - - 20.5 1011.2 0.0
18/04:30am SSW 11 16 - - - - - - - 20.4 1010.8 0.0
18/04:00am SSW 11 16 - - - - - - - 20.4 1010.5 0.0
18/03:30am SW 12 18 - - - - - - - 20.5 1010.6 0.0
18/03:00am SW 12 17 - - - - - - - 20.5 1010.6 0.0
18/02:30am SSW 12 17 - - - - - - - 21.2 1010.3 0.0
18/02:00am SSW 11 19 - - - - - - - 21.0 1010.4 0.0
18/01:30am WSW 10 14 - - - - - - - 21.5 1011.4 0.0
18/01:00am SW 7 11 - - - - - - - 22.2 1011.3 0.0
18/12:30am S 3 4 - - - - - - - 23.2 1011.0 0.0
18/12:00am W 3 8 - - - - - - - 24.0 1011.7 0.0
 
Date/Time
EDT
Wind Sea
Height
m
Swell Vis
km
Cloud Weather Temp
°C
Press
MSL
hPa
Rain since
9am
mm
Dir  Spd
kts
Gust
kts
Height
m
Period
s
Dir
17/11:30pm WSW 7 12 - - - - - - - 24.8 1011.5 0.0
17/11:00pm W 4 9 - - - - - - - 23.8 1011.6 0.0
17/10:30pm W 3 7 - - - - - - - 23.9 1011.8 0.0
17/10:00pm S 2 2 - - - - - - - 24.7 1010.9 0.0
17/09:30pm CALM 0 1 - - - - - - - 24.8 1011.0 0.0
17/09:00pm NNW 4 5 - - - - - - - 23.4 1010.9 0.0
17/08:30pm N 7 8 - - - - - - - 23.3 1010.4 0.0
17/08:00pm NNE 3 6 - - - - - - - 23.5 1010.0 0.0
17/07:30pm N 6 8 - - - - - - - 23.6 1009.7 0.0
17/07:00pm NNE 8 11 - - - - - - - 24.0 1009.1 0.0
17/06:30pm N 9 11 - - - - - - - 24.1 1008.7 0.0
17/06:00pm N 10 14 - - - - - - - 24.2 1008.5 0.0
17/05:30pm N 10 14 - - - - - - - 24.3 1008.5 0.0
17/05:00pm NNE 11 14 - - - - - - - 24.3 1008.2 0.0
17/04:30pm NNE 12 17 - - - - - - - 24.1 1008.0 0.0
17/04:00pm NNE 12 19 - - - - - - - 25.1 1008.0 0.0
17/03:30pm NNE 13 18 - - - - - - - 25.0 1008.1 0.0
17/03:00pm NNE 13 17 - - - - - - - 25.6 1008.2 0.0
17/02:30pm NNE 13 17 - - - - - - - 25.8 1008.3 0.0
17/02:00pm NNE 13 18 - - - - - - - 25.6 1008.5 0.0
17/01:30pm NNE 13 17 - - - - - - - 25.5 1008.8 0.0
17/01:00pm NNE 12 17 - - - - - - - 25.7 1009.1 0.0
17/12:30pm NNE 11 14 - - - - - - - 26.4 1009.4 0.0
17/12:00pm NNE 11 15 - - - - - - - 26.2 1009.7 0.0
17/11:30am NNE 13 16 - - - - - - - 24.3 1009.7 0.0
17/11:00am NE 13 17 - - - - - - - 25.2 1009.7 0.0
17/10:30am NNE 11 16 - - - - - - - 25.9 1009.9 0.0
17/10:00am NNE 9 14 - - - - - - - 25.0 1009.9 0.0
17/09:30am NNE 9 13 - - - - - - - 25.0 1009.9 0.0
17/09:00am NNE 7 10 - - - - - - - 24.0 1010.3 0.4
17/08:30am N 7 9 - - - - - - - 23.5 1010.2 0.4
17/08:00am N 6 9 - - - - - - - 22.2 1010.4 0.4
17/07:30am N 5 7 - - - - - - - 21.5 1010.0 0.4
17/07:00am N 5 6 - - - - - - - 20.4 1010.1 0.4
17/06:30am N 4 5 - - - - - - - 19.9 1008.6 0.4
17/06:00am N 3 3 - - - - - - - 19.5 1009.2 0.4
17/05:30am NNW 3 4 - - - - - - - 19.7 1009.5 0.4
17/05:00am NW 3 3 - - - - - - - 20.1 1009.6 0.4
17/04:30am W 1 2 - - - - - - - 20.5 1009.5 0.4
17/04:00am SSW 2 2 - - - - - - - 20.8 1009.6 0.4
17/03:30am SW 1 2 - - - - - - - 20.6 1009.7 0.4
17/03:00am WSW 2 3 - - - - - - - 20.9 1010.0 0.4
17/02:30am SW 1 2 - - - - - - - 21.0 1010.6 0.4
17/02:00am W 2 5 - - - - - - - 21.0 1010.7 0.4
17/01:30am WSW 2 3 - - - - - - - 21.6 1011.0 0.4
17/01:00am WSW 2 2 - - - - - - - 21.2 1011.0 0.4
17/12:30am W 1 2 - - - - - - - 21.4 1010.9 0.4
17/12:00am WSW 1 3 - - - - - - - 21.8 1010.9 0.4
 
Date/Time
EDT
Wind Sea
Height
m
Swell Vis
km
Cloud Weather Temp
°C
Press
MSL
hPa
Rain since
9am
mm
Dir  Spd
kts
Gust
kts
Height
m
Period
s
Dir
16/11:30pm W 2 3 - - - - - - - 21.9 1011.4 0.4
16/11:00pm S 3 5 - - - - - - - 22.3 1011.5 0.4
16/10:30pm S 5 6 - - - - - - - 22.2 1011.2 0.4
16/10:00pm SSW 3 4 - - - - - - - 22.1 1011.4 0.4
16/09:30pm SSW 4 5 - - - - - - - 22.0 1010.8 0.4
16/09:00pm S 4 5 - - - - - - - 22.1 1010.6 0.4
16/08:30pm S 3 5 - - - - - - - 22.1 1010.2 0.4
16/08:00pm S 4 6 - - - - - - - 22.3 1009.9 0.4
16/07:30pm SSE 5 8 - - - - - - - 22.4 1009.6 0.4
16/07:00pm SSE 5 9 - - - - - - - 22.5 1009.2 0.4
16/06:30pm SSE 7 10 - - - - - - - 22.6 1008.8 0.4
16/06:00pm SSE 7 10 - - - - - - - 22.9 1008.6 0.4
16/05:30pm SSE 8 10 - - - - - - - 23.5 1008.6 0.4
16/05:00pm S 9 12 - - - - - - - 23.4 1008.7 0.4
16/04:30pm SSE 9 13 - - - - - - - 23.4 1008.6 0.4
16/04:00pm S 9 13 - - - - - - - 23.2 1008.8 0.4
16/03:30pm S 8 12 - - - - - - - 23.3 1009.0 0.4
16/03:00pm SSW 9 13 - - - - - - - 23.2 1009.1 0.4
16/02:30pm SSW 10 13 - - - - - - - 22.9 1009.3 0.4
16/02:00pm S 9 13 - - - - - - - 22.5 1009.4 0.4
16/01:30pm SW 8 13 - - - - - - - 20.9 1010.0 0.4
16/01:00pm SSW 8 12 - - - - - - - 20.4 1009.9 0.4
16/12:30pm SSW 8 13 - - - - - - - 20.3 1010.1 0.4
16/12:00pm SW 7 10 - - - - - - - 20.3 1009.9 0.4
16/11:30am SW 7 10 - - - - - - - 20.2 1010.0 0.4
16/11:00am SW 7 11 - - - - - - - 20.2 1009.7 0.4
16/10:30am SW 8 13 - - - - - - - 19.9 1009.5 0.4
16/10:00am SW 8 13 - - - - - - - 20.0 1009.3 0.2
16/09:30am WSW 7 10 - - - - - - - 20.0 1009.2 0.2
16/09:00am SW 7 11 - - - - - - Recent precip. 20.1 1009.2 0.8
16/08:30am SW 7 10 - - - - - - - 20.4 1008.9 0.6
16/08:00am SW 5 8 - - - - - - - 20.5 1008.6 0.4
16/07:30am WSW 5 8 - - - - - - - 20.6 1008.6 0.4
16/07:00am SW 6 10 - - - - - - - 20.9 1008.3 0.4
16/06:30am SW 5 8 - - - - - - - 20.8 1007.7 0.4
16/06:00am SW 9 13 - - - - - - Recent precip. 20.6 1007.2 0.4
16/05:30am SSW 10 16 - - - - - - - 20.6 1006.7 0.4
16/05:00am SSW 11 15 - - - - - - - 20.3 1006.3 0.2
16/04:30am SSW 12 18 - - - - - - - 20.2 1005.7 0.2
16/04:00am SW 14 20 - - - - - - - 20.3 1005.4 0.2
16/03:30am SW 17 24 - - - - - - - 20.4 1004.6 0.2
16/03:00am SW 15 23 - - - - - - - 20.5 1004.7 0.2
16/02:30am SW 16 23 - - - - - - - 20.7 1004.6 0.2
16/02:00am SW 14 22 - - - - - - - 20.9 1004.8 0.2
16/01:30am SW 12 20 - - - - - - - 21.4 1004.7 0.2
16/01:00am SW 10 17 - - - - - - - 21.7 1005.1 0.2
16/12:30am SW 10 15 - - - - - - - 21.7 1005.2 0.2
16/12:00am WSW 9 14 - - - - - - - 22.0 1005.3 0.2
 
Date/Time
EDT
Wind Sea
Height
m
Swell Vis
km
Cloud Weather Temp
°C
Press
MSL
hPa
Rain since
9am
mm
Dir  Spd
kts
Gust
kts
Height
m
Period
s
Dir
15/11:30pm WSW 7 10 - - - - - - - 22.1 1005.1 0.2
15/11:00pm WSW 6 8 - - - - - - - 22.1 1005.0 0.2
15/10:30pm NNW 7 9 - - - - - - - 22.4 1004.5 0.2
15/10:00pm NNE 9 11 - - - - - - - 22.9 1003.9 0.2
15/09:30pm NNE 9 14 - - - - - - - 23.0 1003.3 0.2

Other formats

Comma delimited format used in spreadsheet applications
http://www.bom.gov.au/fwo/IDN60701/IDN60701.95940.axf

JavaScript Object Notation format (JSON) in row-major order
http://www.bom.gov.au/fwo/IDN60701/IDN60701.95940.json

Data quality

Most of these data are generated automatically and are frequently updated. Quality checks on data are not normally performed. It is possible for incorrect values to appear. Refer to information at About Latest Weather Observations and please check the disclaimer before using these data.